createdAt,value
2019-02-17T00:01:50.277Z,1.43
2019-02-17T00:04:39.875Z,1.46
2019-02-17T00:07:29.751Z,1.45
2019-02-17T00:10:19.011Z,1.39
2019-02-17T00:13:08.738Z,1.16
2019-02-17T00:15:58.164Z,1.26
2019-02-17T00:18:48.415Z,1.03
2019-02-17T00:21:37.735Z,1.08
2019-02-17T00:24:27.302Z,1.05
2019-02-17T00:27:40.514Z,1.06
2019-02-17T00:30:29.879Z,1.06
2019-02-17T00:33:19.165Z,1.13
2019-02-17T00:36:08.701Z,1.14
2019-02-17T00:38:58.145Z,1.02
2019-02-17T00:41:47.635Z,1.11
2019-02-17T00:44:36.855Z,1.06
2019-02-17T00:47:26.076Z,1.04
2019-02-17T00:50:15.620Z,1.00
2019-02-17T00:53:04.771Z,0.78
2019-02-17T00:55:54.435Z,0.99
2019-02-17T00:58:43.919Z,1.10
2019-02-17T01:01:33.338Z,1.08
2019-02-17T01:04:22.919Z,0.99
2019-02-17T01:07:13.718Z,1.10
2019-02-17T01:10:03.562Z,1.13
2019-02-17T01:12:52.758Z,1.19
2019-02-17T01:15:42.651Z,1.17
2019-02-17T01:18:32.236Z,1.13
2019-02-17T01:21:21.511Z,1.13
2019-02-17T01:24:11.367Z,1.12
2019-02-17T01:27:00.919Z,1.13
2019-02-17T01:29:51.057Z,1.23
2019-02-17T01:32:40.830Z,1.17
2019-02-17T01:35:30.595Z,1.24
2019-02-17T01:38:19.832Z,1.21
2019-02-17T01:41:10.152Z,1.31
2019-02-17T01:44:00.001Z,1.24
2019-02-17T01:46:49.188Z,1.36
2019-02-17T01:49:39.502Z,1.21
2019-02-17T01:52:28.730Z,1.19
2019-02-17T01:55:18.600Z,1.29
2019-02-17T01:58:08.143Z,1.21
2019-02-17T02:00:58.648Z,1.17
2019-02-17T02:03:47.877Z,1.28
2019-02-17T02:06:36.967Z,1.10
2019-02-17T02:09:26.646Z,1.04
2019-02-17T02:12:16.387Z,1.08
2019-02-17T02:15:06.553Z,1.08
2019-02-17T02:17:56.471Z,1.09
2019-02-17T02:20:46.380Z,1.12
2019-02-17T02:23:35.586Z,1.03
2019-02-17T02:26:25.212Z,0.93
2019-02-17T02:29:14.724Z,0.92
2019-02-17T02:32:04.967Z,1.00
2019-02-17T02:34:54.094Z,0.90
2019-02-17T02:37:43.598Z,0.90
2019-02-17T02:40:32.871Z,1.04
2019-02-17T02:43:22.678Z,0.91
2019-02-17T02:46:12.193Z,1.17
2019-02-17T02:49:01.871Z,1.03
2019-02-17T02:51:51.552Z,0.82
2019-02-17T02:54:41.197Z,0.82
2019-02-17T02:57:30.553Z,0.84
2019-02-17T03:00:20.080Z,0.74
2019-02-17T03:03:09.365Z,0.78
2019-02-17T03:06:12.785Z,0.85
2019-02-17T03:09:04.333Z,0.59
2019-02-17T03:11:54.162Z,0.69
2019-02-17T03:14:43.787Z,0.72
2019-02-17T03:17:32.947Z,0.70
2019-02-17T03:20:22.617Z,0.72
2019-02-17T03:23:15.572Z,0.65
2019-02-17T03:26:04.750Z,0.57
2019-02-17T03:28:54.246Z,0.56
2019-02-17T03:31:44.319Z,0.55
2019-02-17T03:34:33.932Z,0.72
2019-02-17T03:37:23.785Z,0.72
2019-02-17T03:40:12.899Z,0.78
2019-02-17T03:43:02.362Z,0.63
2019-02-17T03:45:51.917Z,0.58
2019-02-17T03:48:41.477Z,0.54
2019-02-17T03:51:33.258Z,0.41
2019-02-17T03:54:22.634Z,0.35
2019-02-17T03:57:11.986Z,0.23
2019-02-17T04:00:01.046Z,0.20
2019-02-17T04:02:50.537Z,0.39
2019-02-17T04:05:40.354Z,0.32
2019-02-17T04:08:29.864Z,0.43
2019-02-17T04:11:19.774Z,0.43
2019-02-17T04:14:24.659Z,0.53
2019-02-17T04:17:14.130Z,0.58
2019-02-17T04:20:03.246Z,0.45
2019-02-17T04:22:52.885Z,0.46
2019-02-17T04:25:42.296Z,0.50
2019-02-17T04:28:32.162Z,0.50
2019-02-17T04:31:21.765Z,0.45
2019-02-17T04:34:11.572Z,0.27
2019-02-17T04:37:01.000Z,0.13
2019-02-17T04:39:50.533Z,0.15
2019-02-17T04:42:39.863Z,0.21
2019-02-17T04:45:29.597Z,0.16
2019-02-17T04:48:19.089Z,0.16
2019-02-17T04:51:08.677Z,0.22
2019-02-17T04:53:58.047Z,0.31
2019-02-17T04:56:47.678Z,0.34
2019-02-17T04:59:37.079Z,0.36
2019-02-17T05:02:26.818Z,0.48
2019-02-17T05:05:16.730Z,0.45
2019-02-17T05:08:06.431Z,0.50
2019-02-17T05:10:56.065Z,0.38
2019-02-17T05:13:45.564Z,0.46
2019-02-17T05:16:35.069Z,0.47
2019-02-17T05:19:25.040Z,0.48
2019-02-17T05:22:14.953Z,0.48
2019-02-17T05:25:04.274Z,0.40
2019-02-17T05:27:53.870Z,0.34
2019-02-17T05:30:52.062Z,0.40
2019-02-17T05:33:34.915Z,0.46
2019-02-17T05:36:24.666Z,0.41
2019-02-17T05:39:14.524Z,0.38
2019-02-17T05:45:27.978Z,0.47
2019-02-17T05:48:17.184Z,0.46
2019-02-17T05:51:06.649Z,0.43
2019-02-17T05:53:55.822Z,0.46
2019-02-17T05:56:45.501Z,0.53
2019-02-17T05:59:35.268Z,0.43
2019-02-17T06:02:24.717Z,0.45
2019-02-17T06:05:17.867Z,0.43
2019-02-17T06:08:07.254Z,0.40
2019-02-17T06:10:57.113Z,0.42
2019-02-17T06:13:46.292Z,0.37
2019-02-17T06:16:36.163Z,0.20
2019-02-17T06:19:25.588Z,0.16
2019-02-17T06:22:15.502Z,0.21
2019-02-17T06:25:05.325Z,0.19
2019-02-17T06:27:55.186Z,0.15
2019-02-17T06:30:44.904Z,0.15
2019-02-17T06:33:34.661Z,0.20
2019-02-17T06:36:23.862Z,0.27
2019-02-17T06:39:13.694Z,0.35
2019-02-17T06:42:03.274Z,0.37
2019-02-17T06:44:52.723Z,0.26
2019-02-17T06:47:42.652Z,0.24
2019-02-17T06:50:32.920Z,0.23
2019-02-17T06:53:22.896Z,0.36
2019-02-17T06:56:27.571Z,0.45
2019-02-17T06:59:17.223Z,0.51
2019-02-17T07:02:07.321Z,0.60
2019-02-17T07:05:21.582Z,0.71
2019-02-17T07:08:11.813Z,0.75
2019-02-17T07:11:01.029Z,0.76
2019-02-17T07:13:50.773Z,0.79
2019-02-17T07:16:40.140Z,0.81
2019-02-17T07:19:29.469Z,0.78
2019-02-17T07:22:18.904Z,0.89
2019-02-17T07:25:08.761Z,0.93
2019-02-17T07:27:58.017Z,1.06
2019-02-17T07:30:47.328Z,1.26
2019-02-17T07:33:37.296Z,1.34
2019-02-17T07:36:26.567Z,1.46
2019-02-17T07:39:19.069Z,1.58
2019-02-17T07:42:09.651Z,1.68
2019-02-17T07:44:59.271Z,2.05
2019-02-17T07:47:48.792Z,2.15
2019-02-17T07:50:38.453Z,2.20
2019-02-17T07:53:27.697Z,2.29
2019-02-17T07:56:17.658Z,2.34
2019-02-17T07:59:07.046Z,2.57
2019-02-17T08:01:56.234Z,2.78
2019-02-17T08:04:45.726Z,2.88
2019-02-17T08:07:35.612Z,3.21
2019-02-17T08:10:25.114Z,3.37
2019-02-17T08:13:14.682Z,3.57
2019-02-17T08:16:04.495Z,3.40
2019-02-17T08:18:54.110Z,3.54
2019-02-17T08:21:49.308Z,3.72
2019-02-17T08:24:39.136Z,3.95
2019-02-17T08:27:28.309Z,4.09
2019-02-17T08:30:18.120Z,4.17
2019-02-17T08:33:07.370Z,4.50
2019-02-17T08:35:56.838Z,4.73
2019-02-17T08:38:46.096Z,4.82
2019-02-17T08:41:35.533Z,4.95
2019-02-17T08:44:25.223Z,5.18
2019-02-17T08:47:14.537Z,5.52
2019-02-17T08:50:03.735Z,5.81
2019-02-17T08:52:53.678Z,5.66
2019-02-17T08:55:43.260Z,5.86
2019-02-17T08:58:33.292Z,6.07
2019-02-17T09:01:23.289Z,6.68
2019-02-17T09:04:13.276Z,7.26
2019-02-17T09:07:02.728Z,7.95
2019-02-17T09:09:51.947Z,8.36
2019-02-17T09:12:41.487Z,9.34
2019-02-17T09:15:31.131Z,9.54
2019-02-17T09:18:20.351Z,10.29
2019-02-17T09:21:10.624Z,10.43
2019-02-17T09:24:00.485Z,10.54
2019-02-17T09:26:49.815Z,10.72
2019-02-17T09:29:39.890Z,10.51
2019-02-17T09:32:29.468Z,10.95
2019-02-17T09:35:19.152Z,11.02
2019-02-17T09:38:08.781Z,11.55
2019-02-17T09:40:59.003Z,11.50
2019-02-17T09:43:48.685Z,11.17
2019-02-17T09:46:38.373Z,11.15
2019-02-17T09:49:28.085Z,10.50
2019-02-17T09:52:17.278Z,10.85
2019-02-17T09:55:06.749Z,10.72
2019-02-17T09:57:56.272Z,10.25
2019-02-17T10:00:46.567Z,10.80
2019-02-17T10:03:36.087Z,10.49
2019-02-17T10:06:25.257Z,10.82
2019-02-17T10:09:15.143Z,10.84
2019-02-17T10:12:04.410Z,11.34
2019-02-17T10:14:53.669Z,11.40
2019-02-17T10:17:42.863Z,12.00
2019-02-17T10:20:32.183Z,12.79
2019-02-17T10:23:21.648Z,13.26
2019-02-17T10:26:11.071Z,14.43
2019-02-17T10:29:00.562Z,14.97
2019-02-17T10:31:50.374Z,15.27
2019-02-17T10:34:39.557Z,15.75
2019-02-17T10:37:29.423Z,15.99
2019-02-17T10:40:18.817Z,16.11
2019-02-17T10:43:08.096Z,17.00
2019-02-17T10:45:57.726Z,16.66
2019-02-17T10:48:47.052Z,17.71
2019-02-17T10:51:36.497Z,18.47
2019-02-17T10:54:26.048Z,19.05
2019-02-17T10:57:18.205Z,18.59
2019-02-17T11:00:11.895Z,19.30
2019-02-17T11:03:17.457Z,19.25
2019-02-17T11:06:07.422Z,19.72
2019-02-17T11:08:57.023Z,20.17
2019-02-17T11:11:46.589Z,20.72
2019-02-17T11:14:35.876Z,20.83
2019-02-17T11:17:25.726Z,20.80
2019-02-17T11:20:15.331Z,20.42
2019-02-17T11:23:05.020Z,20.54
2019-02-17T11:25:54.411Z,21.72
2019-02-17T11:28:44.444Z,21.12
2019-02-17T11:31:33.719Z,21.52
2019-02-17T11:34:23.605Z,21.45
2019-02-17T11:37:16.857Z,22.31
2019-02-17T11:40:08.283Z,22.94
2019-02-17T11:42:57.706Z,21.83
2019-02-17T11:45:47.250Z,22.28
2019-02-17T11:48:36.710Z,21.82
2019-02-17T11:51:26.530Z,21.62
2019-02-17T11:54:15.793Z,21.77
2019-02-17T11:57:04.970Z,20.20
2019-02-17T11:59:54.179Z,22.29
2019-02-17T12:02:43.572Z,21.15
2019-02-17T12:05:33.043Z,22.00
2019-02-17T12:08:22.734Z,19.73
2019-02-17T12:11:14.847Z,19.82
2019-02-17T12:14:06.810Z,19.04
2019-02-17T12:16:56.145Z,19.49
2019-02-17T12:19:45.329Z,18.37
2019-02-17T12:22:40.099Z,17.14
2019-02-17T12:25:38.184Z,18.21
2019-02-17T12:29:04.802Z,19.23
2019-02-17T12:31:54.957Z,17.53
2019-02-17T12:34:44.302Z,18.39
2019-02-17T12:37:33.795Z,17.22
2019-02-17T12:40:23.697Z,16.76
2019-02-17T12:43:15.221Z,16.12
2019-02-17T12:46:04.948Z,15.68
2019-02-17T12:48:54.367Z,15.04
2019-02-17T12:51:43.552Z,15.75
2019-02-17T12:54:33.081Z,15.22
2019-02-17T12:57:22.524Z,15.67
2019-02-17T13:00:15.644Z,16.15
2019-02-17T13:03:05.564Z,15.88
2019-02-17T13:05:54.907Z,15.72
2019-02-17T13:08:44.496Z,15.62
2019-02-17T13:11:34.305Z,15.26
2019-02-17T13:14:23.497Z,15.34
2019-02-17T13:17:16.487Z,15.05
2019-02-17T13:20:08.161Z,15.22
2019-02-17T13:22:57.514Z,15.43
2019-02-17T13:25:47.102Z,15.54
2019-02-17T13:28:36.804Z,15.60
2019-02-17T13:31:26.105Z,15.29
2019-02-17T13:34:16.192Z,15.19
2019-02-17T13:37:05.658Z,15.65
2019-02-17T13:39:55.120Z,16.00
2019-02-17T13:42:44.367Z,15.62
2019-02-17T13:45:34.677Z,15.64
2019-02-17T13:48:23.919Z,16.18
2019-02-17T13:51:20.938Z,16.08
2019-02-17T13:54:10.621Z,15.85
2019-02-17T13:56:59.828Z,15.48
2019-02-17T13:59:49.493Z,15.69
2019-02-17T14:02:39.531Z,16.27
2019-02-17T14:05:28.981Z,16.75
2019-02-17T14:08:18.582Z,16.81
2019-02-17T14:11:07.802Z,16.64
2019-02-17T14:13:57.275Z,16.77
2019-02-17T14:16:47.000Z,16.29
2019-02-17T14:19:36.760Z,16.77
2019-02-17T14:22:26.408Z,17.22
2019-02-17T14:25:34.070Z,17.41
2019-02-17T14:28:23.688Z,17.29
2019-02-17T14:31:14.105Z,17.81
2019-02-17T14:34:05.045Z,17.75
2019-02-17T14:36:55.097Z,18.29
2019-02-17T14:39:44.595Z,18.58
2019-02-17T14:42:34.233Z,18.93
2019-02-17T14:45:23.600Z,18.96
2019-02-17T14:48:13.369Z,19.08
2019-02-17T14:51:02.620Z,19.43
2019-02-17T14:53:52.080Z,20.15
2019-02-17T14:56:41.477Z,19.87
2019-02-17T14:59:31.232Z,20.53
2019-02-17T15:02:20.462Z,19.72
2019-02-17T15:05:10.858Z,19.99
2019-02-17T15:08:00.414Z,21.08
2019-02-17T15:10:50.344Z,20.06
2019-02-17T15:13:39.614Z,20.98
2019-02-17T15:16:28.978Z,20.90
2019-02-17T15:19:18.581Z,20.18
2019-02-17T15:22:08.565Z,19.58
2019-02-17T15:24:57.963Z,19.36
2019-02-17T15:27:48.023Z,19.13
2019-02-17T15:30:37.595Z,18.51
2019-02-17T15:33:27.230Z,17.48
2019-02-17T15:36:16.482Z,17.15
2019-02-17T15:39:09.858Z,16.89
2019-02-17T15:41:59.532Z,16.03
2019-02-17T15:44:49.010Z,16.15
2019-02-17T15:47:39.025Z,15.43
2019-02-17T15:50:28.658Z,13.91
2019-02-17T15:53:18.688Z,12.42
2019-02-17T15:56:07.907Z,11.19
2019-02-17T15:58:57.100Z,11.05
2019-02-17T16:01:46.375Z,10.86
2019-02-17T16:04:36.308Z,10.60
2019-02-17T16:07:25.936Z,10.43
2019-02-17T16:10:15.977Z,10.47
2019-02-17T16:13:05.543Z,10.13
2019-02-17T16:15:55.428Z,10.00
2019-02-17T16:18:45.048Z,9.74
2019-02-17T16:21:34.583Z,9.60
2019-02-17T16:24:23.777Z,9.18
2019-02-17T16:27:13.679Z,9.02
2019-02-17T16:30:03.339Z,8.78
2019-02-17T16:32:53.019Z,8.44
2019-02-17T16:35:42.204Z,8.42
2019-02-17T16:38:31.395Z,7.92
2019-02-17T16:41:20.580Z,7.86
2019-02-17T16:44:10.466Z,7.66
2019-02-17T16:46:59.860Z,7.58
2019-02-17T16:49:49.807Z,7.50
2019-02-17T16:52:39.304Z,7.47
2019-02-17T16:55:29.180Z,7.52
2019-02-17T16:58:18.402Z,7.50
2019-02-17T17:01:07.854Z,7.57
2019-02-17T17:03:57.066Z,7.54
2019-02-17T17:06:46.972Z,7.34
2019-02-17T17:09:36.286Z,7.46
2019-02-17T17:12:25.954Z,7.44
2019-02-17T17:15:16.135Z,7.55
2019-02-17T17:18:05.784Z,7.44
2019-02-17T17:20:55.160Z,7.56
2019-02-17T17:23:44.564Z,7.47
2019-02-17T17:26:34.289Z,7.51
2019-02-17T17:29:24.269Z,7.33
2019-02-17T17:32:13.657Z,7.27
2019-02-17T17:35:03.265Z,7.28
2019-02-17T17:37:52.456Z,7.21
2019-02-17T17:40:41.698Z,7.19
2019-02-17T17:43:30.987Z,6.81
2019-02-17T17:46:20.744Z,7.00
2019-02-17T17:49:18.977Z,7.05
2019-02-17T17:52:28.442Z,6.53
2019-02-17T17:55:17.658Z,7.00
2019-02-17T17:58:07.115Z,6.92
2019-02-17T18:00:57.638Z,6.67
2019-02-17T18:03:47.108Z,6.77
2019-02-17T18:06:37.064Z,6.63
2019-02-17T18:09:26.767Z,6.70
2019-02-17T18:12:16.218Z,6.69
2019-02-17T18:15:06.652Z,6.48
2019-02-17T18:17:55.832Z,6.34
2019-02-17T18:20:45.512Z,6.31
2019-02-17T18:23:35.316Z,6.22
2019-02-17T18:26:24.792Z,6.14
2019-02-17T18:29:16.457Z,6.11
2019-02-17T18:32:05.690Z,6.22
2019-02-17T18:34:54.854Z,6.05
2019-02-17T18:37:44.271Z,6.09
2019-02-17T18:40:33.503Z,5.87
2019-02-17T18:43:23.659Z,5.92
2019-02-17T18:46:13.185Z,5.64
2019-02-17T18:49:05.365Z,5.48
2019-02-17T18:51:54.722Z,5.27
2019-02-17T18:54:44.276Z,5.29
2019-02-17T18:57:33.593Z,5.14
2019-02-17T19:00:23.281Z,5.29
2019-02-17T19:03:16.338Z,4.85
2019-02-17T19:06:10.901Z,4.84
2019-02-17T19:09:00.127Z,4.86
2019-02-17T19:11:49.305Z,5.00
2019-02-17T19:14:38.851Z,4.88
2019-02-17T19:17:28.547Z,4.77
2019-02-17T19:20:19.070Z,4.77
2019-02-17T19:23:08.370Z,4.63
2019-02-17T19:25:57.922Z,4.53
2019-02-17T19:28:50.371Z,4.50
2019-02-17T19:31:41.591Z,4.53
2019-02-17T19:34:38.811Z,4.62
2019-02-17T19:37:36.213Z,4.65
2019-02-17T19:40:34.017Z,4.84
2019-02-17T19:43:31.207Z,4.59
2019-02-17T19:46:34.849Z,4.46
2019-02-17T19:49:36.559Z,4.41
2019-02-17T19:52:26.019Z,4.39
2019-02-17T19:58:53.163Z,4.30
2019-02-17T20:01:42.535Z,4.26
2019-02-17T20:04:35.925Z,4.06
2019-02-17T20:07:25.807Z,4.09
2019-02-17T20:10:15.102Z,3.89
2019-02-17T20:13:04.954Z,3.95
2019-02-17T20:15:54.154Z,3.84
2019-02-17T20:18:43.628Z,3.91
2019-02-17T20:21:33.314Z,3.84
2019-02-17T20:24:22.539Z,3.66
2019-02-17T20:27:12.859Z,3.58
2019-02-17T20:30:02.257Z,3.63
2019-02-17T20:32:51.993Z,3.58
2019-02-17T20:35:41.285Z,3.43
2019-02-17T20:38:30.940Z,3.59
2019-02-17T20:41:20.313Z,3.51
2019-02-17T20:44:09.488Z,3.29
2019-02-17T20:46:58.700Z,3.20
2019-02-17T20:49:53.584Z,2.79
2019-02-17T20:52:43.029Z,2.95
2019-02-17T20:55:32.671Z,2.92
2019-02-17T20:58:21.946Z,3.17
2019-02-17T21:01:11.082Z,3.23
2019-02-17T21:04:00.720Z,3.19
2019-02-17T21:06:50.576Z,3.15
2019-02-17T21:10:11.622Z,2.96
2019-02-17T21:13:01.355Z,3.00
2019-02-17T21:15:50.757Z,3.02
2019-02-17T21:18:40.180Z,3.09
2019-02-17T21:21:30.137Z,3.21
2019-02-17T21:24:19.692Z,3.16
2019-02-17T21:27:09.444Z,3.24
2019-02-17T21:29:58.545Z,3.10
2019-02-17T21:32:47.777Z,3.02
2019-02-17T21:35:37.501Z,2.93
2019-02-17T21:38:26.745Z,2.97
2019-02-17T21:41:18.757Z,2.98
2019-02-17T21:44:08.095Z,2.94
2019-02-17T21:46:57.911Z,2.79
2019-02-17T21:49:47.309Z,2.98
2019-02-17T21:52:36.977Z,2.59
2019-02-17T21:55:26.201Z,2.73
2019-02-17T21:58:16.188Z,2.70
2019-02-17T22:01:05.316Z,2.60
2019-02-17T22:03:55.279Z,2.67
2019-02-17T22:06:44.606Z,2.59
2019-02-17T22:09:36.198Z,2.65
2019-02-17T22:12:25.621Z,2.75
2019-02-17T22:15:15.877Z,2.66
2019-02-17T22:18:05.293Z,2.74
2019-02-17T22:20:54.645Z,2.71
2019-02-17T22:23:43.850Z,2.58
2019-02-17T22:26:33.692Z,2.62
2019-02-17T22:29:23.131Z,2.62
2019-02-17T22:32:12.739Z,2.68
2019-02-17T22:35:01.881Z,2.68
2019-02-17T22:37:51.286Z,2.78
2019-02-17T22:40:40.501Z,2.84
2019-02-17T22:43:30.056Z,2.71
2019-02-17T22:46:19.701Z,2.82
2019-02-17T22:49:12.193Z,2.62
2019-02-17T22:52:02.188Z,2.56
2019-02-17T22:54:51.822Z,2.66
2019-02-17T22:57:41.202Z,2.62
2019-02-17T23:00:47.834Z,2.54
2019-02-17T23:03:37.323Z,2.60
2019-02-17T23:06:26.882Z,2.56
2019-02-17T23:09:16.419Z,2.46
2019-02-17T23:12:06.755Z,2.54
2019-02-17T23:14:56.240Z,2.43
2019-02-17T23:17:46.198Z,2.33
2019-02-17T23:20:35.471Z,2.31
2019-02-17T23:23:24.670Z,2.43
2019-02-17T23:26:13.839Z,2.30
2019-02-17T23:29:06.220Z,2.27
2019-02-17T23:31:55.516Z,2.29
2019-02-17T23:34:45.652Z,2.33
2019-02-17T23:37:35.237Z,2.33
2019-02-17T23:40:25.266Z,2.24
2019-02-17T23:43:15.762Z,2.00
2019-02-17T23:46:05.428Z,2.08
2019-02-17T23:48:54.592Z,1.92
2019-02-17T23:51:44.242Z,1.93
2019-02-17T23:54:33.969Z,1.99
2019-02-17T23:57:23.421Z,2.04
